sensor_id;sensor_type;location;lat;lon;timestamp;temperature;humidity
35531;DHT22;21637;53.352;-6.356;2023-04-09T00:02:15;10.60;99.90
35531;DHT22;21637;53.352;-6.356;2023-04-09T00:04:41;10.60;99.90
35531;DHT22;21637;53.352;-6.356;2023-04-09T00:07:07;10.60;99.90
35531;DHT22;21637;53.352;-6.356;2023-04-09T00:09:33;10.50;99.90
35531;DHT22;21637;53.352;-6.356;2023-04-09T00:11:58;10.50;99.90
35531;DHT22;21637;53.352;-6.356;2023-04-09T00:14:24;10.50;99.90
35531;DHT22;21637;53.352;-6.356;2023-04-09T00:16:50;10.50;99.90
35531;DHT22;21637;53.352;-6.356;2023-04-09T00:19:16;10.50;99.90
35531;DHT22;21637;53.352;-6.356;2023-04-09T00:21:41;10.50;99.90
35531;DHT22;21637;53.352;-6.356;2023-04-09T00:24:07;10.50;99.90
35531;DHT22;21637;53.352;-6.356;2023-04-09T00:26:33;10.50;99.90
35531;DHT22;21637;53.352;-6.356;2023-04-09T00:28:59;10.50;99.90
35531;DHT22;21637;53.352;-6.356;2023-04-09T00:31:25;10.50;99.90
35531;DHT22;21637;53.352;-6.356;2023-04-09T00:33:51;10.50;99.90
35531;DHT22;21637;53.352;-6.356;2023-04-09T00:36:16;10.50;99.90
35531;DHT22;21637;53.352;-6.356;2023-04-09T00:38:42;10.50;99.90
35531;DHT22;21637;53.352;-6.356;2023-04-09T00:41:08;10.50;99.90
35531;DHT22;21637;53.352;-6.356;2023-04-09T00:43:34;10.50;99.90
35531;DHT22;21637;53.352;-6.356;2023-04-09T00:46:00;10.50;99.90
35531;DHT22;21637;53.352;-6.356;2023-04-09T00:48:26;10.50;99.90
35531;DHT22;21637;53.352;-6.356;2023-04-09T00:50:52;10.50;99.90
35531;DHT22;21637;53.352;-6.356;2023-04-09T00:53:19;10.60;99.90
35531;DHT22;21637;53.352;-6.356;2023-04-09T00:55:45;10.50;99.90
35531;DHT22;21637;53.352;-6.356;2023-04-09T00:58:11;10.50;99.90
35531;DHT22;21637;53.352;-6.356;2023-04-09T01:00:37;10.50;99.90
35531;DHT22;21637;53.352;-6.356;2023-04-09T01:03:04;10.50;99.90
35531;DHT22;21637;53.352;-6.356;2023-04-09T01:05:43;10.40;99.90
35531;DHT22;21637;53.352;-6.356;2023-04-09T01:08:23;10.50;99.90
35531;DHT22;21637;53.352;-6.356;2023-04-09T01:16:34;10.40;99.90
35531;DHT22;21637;53.352;-6.356;2023-04-09T01:19:31;10.40;99.90
35531;DHT22;21637;53.352;-6.356;2023-04-09T01:21:59;10.30;99.90
35531;DHT22;21637;53.352;-6.356;2023-04-09T01:27:39;10.20;99.90
35531;DHT22;21637;53.352;-6.356;2023-04-09T01:30:09;10.20;99.90
35531;DHT22;21637;53.352;-6.356;2023-04-09T01:32:38;10.20;99.90
35531;DHT22;21637;53.352;-6.356;2023-04-09T01:35:06;10.20;99.90
35531;DHT22;21637;53.352;-6.356;2023-04-09T01:37:34;10.20;99.90
35531;DHT22;21637;53.352;-6.356;2023-04-09T01:40:00;10.20;99.90
35531;DHT22;21637;53.352;-6.356;2023-04-09T01:42:27;10.30;99.90
35531;DHT22;21637;53.352;-6.356;2023-04-09T01:44:54;10.30;99.90
35531;DHT22;21637;53.352;-6.356;2023-04-09T01:47:20;10.30;99.90
35531;DHT22;21637;53.352;-6.356;2023-04-09T01:49:46;10.30;99.90
35531;DHT22;21637;53.352;-6.356;2023-04-09T01:52:12;10.30;99.90
35531;DHT22;21637;53.352;-6.356;2023-04-09T01:54:39;10.30;99.90
35531;DHT22;21637;53.352;-6.356;2023-04-09T01:57:04;10.30;99.90
35531;DHT22;21637;53.352;-6.356;2023-04-09T01:59:30;10.30;99.90
35531;DHT22;21637;53.352;-6.356;2023-04-09T02:02:00;10.20;99.90
35531;DHT22;21637;53.352;-6.356;2023-04-09T02:04:32;10.30;99.90
35531;DHT22;21637;53.352;-6.356;2023-04-09T02:09:29;10.30;99.90
35531;DHT22;21637;53.352;-6.356;2023-04-09T02:11:58;10.30;99.90
35531;DHT22;21637;53.352;-6.356;2023-04-09T02:14:26;10.30;99.90
35531;DHT22;21637;53.352;-6.356;2023-04-09T02:16:52;10.30;99.90
35531;DHT22;21637;53.352;-6.356;2023-04-09T02:19:18;10.30;99.90
35531;DHT22;21637;53.352;-6.356;2023-04-09T02:21:45;10.30;99.90
35531;DHT22;21637;53.352;-6.356;2023-04-09T02:24:11;10.30;99.90
35531;DHT22;21637;53.352;-6.356;2023-04-09T02:26:36;10.30;99.90
35531;DHT22;21637;53.352;-6.356;2023-04-09T02:29:02;10.30;99.90
35531;DHT22;21637;53.352;-6.356;2023-04-09T02:31:28;10.30;99.90
35531;DHT22;21637;53.352;-6.356;2023-04-09T02:33:53;10.30;99.90
35531;DHT22;21637;53.352;-6.356;2023-04-09T02:36:19;10.30;99.90
35531;DHT22;21637;53.352;-6.356;2023-04-09T02:38:45;10.20;99.90
35531;DHT22;21637;53.352;-6.356;2023-04-09T02:41:11;10.30;99.90
35531;DHT22;21637;53.352;-6.356;2023-04-09T02:43:37;10.30;99.90
35531;DHT22;21637;53.352;-6.356;2023-04-09T02:46:03;10.30;99.90
35531;DHT22;21637;53.352;-6.356;2023-04-09T02:48:29;10.30;99.90
35531;DHT22;21637;53.352;-6.356;2023-04-09T02:50:54;10.30;99.90
35531;DHT22;21637;53.352;-6.356;2023-04-09T02:53:20;10.20;99.90
35531;DHT22;21637;53.352;-6.356;2023-04-09T02:55:46;10.30;99.90
35531;DHT22;21637;53.352;-6.356;2023-04-09T02:58:12;10.30;99.90
35531;DHT22;21637;53.352;-6.356;2023-04-09T03:00:37;10.30;99.90
35531;DHT22;21637;53.352;-6.356;2023-04-09T03:03:03;10.30;99.90
35531;DHT22;21637;53.352;-6.356;2023-04-09T03:05:29;10.20;99.90
35531;DHT22;21637;53.352;-6.356;2023-04-09T03:07:55;10.20;99.90
35531;DHT22;21637;53.352;-6.356;2023-04-09T03:10:21;10.20;99.90
35531;DHT22;21637;53.352;-6.356;2023-04-09T03:12:46;10.20;99.90
35531;DHT22;21637;53.352;-6.356;2023-04-09T03:15:12;10.20;99.90
35531;DHT22;21637;53.352;-6.356;2023-04-09T03:17:38;10.20;99.90
35531;DHT22;21637;53.352;-6.356;2023-04-09T03:20:05;10.20;99.90
35531;DHT22;21637;53.352;-6.356;2023-04-09T03:22:38;10.20;99.90
35531;DHT22;21637;53.352;-6.356;2023-04-09T03:25:04;10.20;99.90
35531;DHT22;21637;53.352;-6.356;2023-04-09T03:27:31;10.20;99.90
35531;DHT22;21637;53.352;-6.356;2023-04-09T03:29:57;10.30;99.90
35531;DHT22;21637;53.352;-6.356;2023-04-09T03:32:23;10.20;99.90
35531;DHT22;21637;53.352;-6.356;2023-04-09T03:34:49;10.30;99.90
35531;DHT22;21637;53.352;-6.356;2023-04-09T03:37:15;10.20;99.90
35531;DHT22;21637;53.352;-6.356;2023-04-09T03:39:40;10.20;99.90
35531;DHT22;21637;53.352;-6.356;2023-04-09T03:42:06;10.10;99.90
35531;DHT22;21637;53.352;-6.356;2023-04-09T03:44:32;10.20;99.90
35531;DHT22;21637;53.352;-6.356;2023-04-09T03:46:58;10.20;99.90
35531;DHT22;21637;53.352;-6.356;2023-04-09T03:49:23;10.20;99.90
35531;DHT22;21637;53.352;-6.356;2023-04-09T03:51:49;10.20;99.90
35531;DHT22;21637;53.352;-6.356;2023-04-09T03:54:15;10.20;99.90
35531;DHT22;21637;53.352;-6.356;2023-04-09T03:56:41;10.20;99.90
35531;DHT22;21637;53.352;-6.356;2023-04-09T03:59:06;10.20;99.90
35531;DHT22;21637;53.352;-6.356;2023-04-09T04:01:32;10.10;99.90
35531;DHT22;21637;53.352;-6.356;2023-04-09T04:03:59;10.10;99.90
35531;DHT22;21637;53.352;-6.356;2023-04-09T04:06:24;10.10;99.90
35531;DHT22;21637;53.352;-6.356;2023-04-09T04:08:51;10.10;99.90
35531;DHT22;21637;53.352;-6.356;2023-04-09T04:11:17;10.10;99.90
35531;DHT22;21637;53.352;-6.356;2023-04-09T04:13:43;10.10;99.90
35531;DHT22;21637;53.352;-6.356;2023-04-09T04:16:09;10.10;99.90
35531;DHT22;21637;53.352;-6.356;2023-04-09T04:18:35;10.00;99.90
35531;DHT22;21637;53.352;-6.356;2023-04-09T04:21:01;10.00;99.90
35531;DHT22;21637;53.352;-6.356;2023-04-09T04:23:27;10.00;99.90
35531;DHT22;21637;53.352;-6.356;2023-04-09T04:25:53;10.00;99.90
35531;DHT22;21637;53.352;-6.356;2023-04-09T04:28:18;10.00;99.90
35531;DHT22;21637;53.352;-6.356;2023-04-09T04:30:44;10.00;99.90
35531;DHT22;21637;53.352;-6.356;2023-04-09T04:33:10;10.00;99.90
35531;DHT22;21637;53.352;-6.356;2023-04-09T04:35:36;10.10;99.90
35531;DHT22;21637;53.352;-6.356;2023-04-09T04:38:02;10.00;99.90
35531;DHT22;21637;53.352;-6.356;2023-04-09T04:40:28;10.00;99.90
35531;DHT22;21637;53.352;-6.356;2023-04-09T04:42:53;10.00;99.90
35531;DHT22;21637;53.352;-6.356;2023-04-09T04:45:19;9.90;99.90
35531;DHT22;21637;53.352;-6.356;2023-04-09T04:47:45;9.90;99.90
35531;DHT22;21637;53.352;-6.356;2023-04-09T04:50:11;9.90;99.90
35531;DHT22;21637;53.352;-6.356;2023-04-09T04:52:36;9.90;99.90
35531;DHT22;21637;53.352;-6.356;2023-04-09T04:55:05;9.90;99.90
35531;DHT22;21637;53.352;-6.356;2023-04-09T04:57:31;9.80;99.90
35531;DHT22;21637;53.352;-6.356;2023-04-09T04:59:56;9.80;99.90
35531;DHT22;21637;53.352;-6.356;2023-04-09T05:02:22;9.80;99.90
35531;DHT22;21637;53.352;-6.356;2023-04-09T05:04:48;9.80;99.90
35531;DHT22;21637;53.352;-6.356;2023-04-09T05:07:13;9.80;99.90
35531;DHT22;21637;53.352;-6.356;2023-04-09T05:09:39;9.70;99.90
35531;DHT22;21637;53.352;-6.356;2023-04-09T05:12:07;9.70;99.90
35531;DHT22;21637;53.352;-6.356;2023-04-09T05:14:33;9.70;99.90
35531;DHT22;21637;53.352;-6.356;2023-04-09T05:16:59;9.70;99.90
35531;DHT22;21637;53.352;-6.356;2023-04-09T05:19:25;9.70;99.90
35531;DHT22;21637;53.352;-6.356;2023-04-09T05:21:50;9.70;99.90
35531;DHT22;21637;53.352;-6.356;2023-04-09T05:24:16;9.70;99.90
35531;DHT22;21637;53.352;-6.356;2023-04-09T05:26:42;9.70;99.90
35531;DHT22;21637;53.352;-6.356;2023-04-09T05:29:08;9.80;99.90
35531;DHT22;21637;53.352;-6.356;2023-04-09T05:31:34;9.80;99.90
35531;DHT22;21637;53.352;-6.356;2023-04-09T05:34:00;9.90;99.90
35531;DHT22;21637;53.352;-6.356;2023-04-09T05:36:25;9.90;99.90
35531;DHT22;21637;53.352;-6.356;2023-04-09T05:38:51;9.90;99.90
35531;DHT22;21637;53.352;-6.356;2023-04-09T05:41:17;9.90;99.90
35531;DHT22;21637;53.352;-6.356;2023-04-09T05:43:43;9.80;99.90
35531;DHT22;21637;53.352;-6.356;2023-04-09T05:46:08;9.80;99.90
35531;DHT22;21637;53.352;-6.356;2023-04-09T05:48:34;9.80;99.90
35531;DHT22;21637;53.352;-6.356;2023-04-09T05:51:01;9.90;99.90
35531;DHT22;21637;53.352;-6.356;2023-04-09T05:53:27;9.90;99.90
35531;DHT22;21637;53.352;-6.356;2023-04-09T05:55:53;9.90;99.90
35531;DHT22;21637;53.352;-6.356;2023-04-09T05:58:19;9.90;99.90
35531;DHT22;21637;53.352;-6.356;2023-04-09T06:00:45;10.00;99.90
35531;DHT22;21637;53.352;-6.356;2023-04-09T06:03:10;10.00;99.90
35531;DHT22;21637;53.352;-6.356;2023-04-09T06:05:36;10.00;99.90
35531;DHT22;21637;53.352;-6.356;2023-04-09T06:08:02;10.00;99.90
35531;DHT22;21637;53.352;-6.356;2023-04-09T06:10:27;10.00;99.90
35531;DHT22;21637;53.352;-6.356;2023-04-09T06:12:53;10.10;99.90
35531;DHT22;21637;53.352;-6.356;2023-04-09T06:15:19;10.10;99.90
35531;DHT22;21637;53.352;-6.356;2023-04-09T06:17:45;10.10;99.90
35531;DHT22;21637;53.352;-6.356;2023-04-09T06:20:11;10.10;99.90
35531;DHT22;21637;53.352;-6.356;2023-04-09T06:22:37;10.20;99.90
35531;DHT22;21637;53.352;-6.356;2023-04-09T06:25:02;10.20;99.90
35531;DHT22;21637;53.352;-6.356;2023-04-09T06:27:28;10.30;99.90
35531;DHT22;21637;53.352;-6.356;2023-04-09T06:29:54;10.30;99.90
35531;DHT22;21637;53.352;-6.356;2023-04-09T06:32:20;10.30;99.90
35531;DHT22;21637;53.352;-6.356;2023-04-09T06:34:45;10.30;99.90
35531;DHT22;21637;53.352;-6.356;2023-04-09T06:37:12;10.30;99.90
35531;DHT22;21637;53.352;-6.356;2023-04-09T06:39:39;10.40;99.90
35531;DHT22;21637;53.352;-6.356;2023-04-09T06:42:04;10.40;99.90
35531;DHT22;21637;53.352;-6.356;2023-04-09T06:44:33;10.40;99.90
35531;DHT22;21637;53.352;-6.356;2023-04-09T06:46:59;10.40;99.90
35531;DHT22;21637;53.352;-6.356;2023-04-09T06:49:25;10.50;99.90
35531;DHT22;21637;53.352;-6.356;2023-04-09T06:51:51;10.50;99.90
35531;DHT22;21637;53.352;-6.356;2023-04-09T06:54:20;10.50;99.90
35531;DHT22;21637;53.352;-6.356;2023-04-09T06:56:46;10.50;99.90
35531;DHT22;21637;53.352;-6.356;2023-04-09T06:59:11;10.50;99.90
35531;DHT22;21637;53.352;-6.356;2023-04-09T07:01:38;10.50;99.90
35531;DHT22;21637;53.352;-6.356;2023-04-09T07:04:04;10.50;99.90
35531;DHT22;21637;53.352;-6.356;2023-04-09T07:06:30;10.50;99.90
35531;DHT22;21637;53.352;-6.356;2023-04-09T07:08:56;10.50;99.90
35531;DHT22;21637;53.352;-6.356;2023-04-09T07:11:21;10.50;99.90
35531;DHT22;21637;53.352;-6.356;2023-04-09T07:13:47;10.50;99.90
35531;DHT22;21637;53.352;-6.356;2023-04-09T07:16:13;10.50;99.90
35531;DHT22;21637;53.352;-6.356;2023-04-09T07:18:38;10.50;99.90
35531;DHT22;21637;53.352;-6.356;2023-04-09T07:21:04;10.50;99.90
35531;DHT22;21637;53.352;-6.356;2023-04-09T07:23:33;10.60;99.90
35531;DHT22;21637;53.352;-6.356;2023-04-09T07:26:04;10.60;99.90
35531;DHT22;21637;53.352;-6.356;2023-04-09T07:28:30;10.60;99.90
35531;DHT22;21637;53.352;-6.356;2023-04-09T07:30:57;10.60;99.90
35531;DHT22;21637;53.352;-6.356;2023-04-09T07:33:22;10.70;99.90
35531;DHT22;21637;53.352;-6.356;2023-04-09T07:35:48;10.80;99.90
35531;DHT22;21637;53.352;-6.356;2023-04-09T07:38:14;10.80;99.90
35531;DHT22;21637;53.352;-6.356;2023-04-09T07:40:40;10.80;99.90
35531;DHT22;21637;53.352;-6.356;2023-04-09T07:43:06;10.90;99.90
35531;DHT22;21637;53.352;-6.356;2023-04-09T07:45:32;10.90;99.90
35531;DHT22;21637;53.352;-6.356;2023-04-09T07:47:57;11.00;99.90
35531;DHT22;21637;53.352;-6.356;2023-04-09T07:50:23;11.10;99.90
35531;DHT22;21637;53.352;-6.356;2023-04-09T07:52:49;11.10;99.90
35531;DHT22;21637;53.352;-6.356;2023-04-09T07:55:15;11.20;99.90
35531;DHT22;21637;53.352;-6.356;2023-04-09T07:57:40;11.30;99.90
35531;DHT22;21637;53.352;-6.356;2023-04-09T08:00:07;11.40;99.90
35531;DHT22;21637;53.352;-6.356;2023-04-09T08:02:33;11.40;99.90
35531;DHT22;21637;53.352;-6.356;2023-04-09T08:04:59;11.60;99.90
35531;DHT22;21637;53.352;-6.356;2023-04-09T08:07:25;11.70;99.90
35531;DHT22;21637;53.352;-6.356;2023-04-09T08:09:51;11.70;99.90
35531;DHT22;21637;53.352;-6.356;2023-04-09T08:12:17;11.80;99.90
35531;DHT22;21637;53.352;-6.356;2023-04-09T08:14:42;11.80;99.90
35531;DHT22;21637;53.352;-6.356;2023-04-09T08:17:08;11.90;99.90
35531;DHT22;21637;53.352;-6.356;2023-04-09T08:19:34;11.90;99.90
35531;DHT22;21637;53.352;-6.356;2023-04-09T08:22:00;12.00;99.90
35531;DHT22;21637;53.352;-6.356;2023-04-09T08:24:26;12.10;99.90
35531;DHT22;21637;53.352;-6.356;2023-04-09T08:26:52;12.10;99.90
35531;DHT22;21637;53.352;-6.356;2023-04-09T08:29:18;12.10;99.90
35531;DHT22;21637;53.352;-6.356;2023-04-09T08:31:44;12.10;99.90
35531;DHT22;21637;53.352;-6.356;2023-04-09T08:34:10;12.10;99.90
35531;DHT22;21637;53.352;-6.356;2023-04-09T08:36:37;12.10;99.90
35531;DHT22;21637;53.352;-6.356;2023-04-09T08:39:03;12.10;99.90
35531;DHT22;21637;53.352;-6.356;2023-04-09T08:41:29;12.20;99.90
35531;DHT22;21637;53.352;-6.356;2023-04-09T08:43:56;12.20;99.90
35531;DHT22;21637;53.352;-6.356;2023-04-09T08:46:22;12.30;99.90
35531;DHT22;21637;53.352;-6.356;2023-04-09T08:48:52;12.30;99.90
35531;DHT22;21637;53.352;-6.356;2023-04-09T08:51:22;12.40;99.90
35531;DHT22;21637;53.352;-6.356;2023-04-09T08:53:59;12.40;99.90
35531;DHT22;21637;53.352;-6.356;2023-04-09T08:56:25;12.40;99.90
35531;DHT22;21637;53.352;-6.356;2023-04-09T08:58:52;12.50;99.90
35531;DHT22;21637;53.352;-6.356;2023-04-09T09:01:26;12.60;99.90
35531;DHT22;21637;53.352;-6.356;2023-04-09T09:06:24;12.60;99.90
35531;DHT22;21637;53.352;-6.356;2023-04-09T09:09:06;12.60;99.90
35531;DHT22;21637;53.352;-6.356;2023-04-09T09:11:33;12.60;99.90
35531;DHT22;21637;53.352;-6.356;2023-04-09T09:14:10;12.70;99.90
35531;DHT22;21637;53.352;-6.356;2023-04-09T09:16:38;12.80;99.90
35531;DHT22;21637;53.352;-6.356;2023-04-09T09:19:07;12.80;99.90
35531;DHT22;21637;53.352;-6.356;2023-04-09T09:21:33;12.80;99.90
35531;DHT22;21637;53.352;-6.356;2023-04-09T09:24:01;12.90;99.90
35531;DHT22;21637;53.352;-6.356;2023-04-09T09:26:28;12.90;99.90
35531;DHT22;21637;53.352;-6.356;2023-04-09T09:28:55;12.90;99.90
35531;DHT22;21637;53.352;-6.356;2023-04-09T09:31:24;12.80;99.90
35531;DHT22;21637;53.352;-6.356;2023-04-09T09:33:50;12.80;99.90
35531;DHT22;21637;53.352;-6.356;2023-04-09T09:36:30;12.80;99.90
35531;DHT22;21637;53.352;-6.356;2023-04-09T09:38:57;12.80;99.90
35531;DHT22;21637;53.352;-6.356;2023-04-09T09:41:24;12.80;99.90
35531;DHT22;21637;53.352;-6.356;2023-04-09T09:43:50;12.80;99.90
35531;DHT22;21637;53.352;-6.356;2023-04-09T09:46:16;12.80;99.90
35531;DHT22;21637;53.352;-6.356;2023-04-09T09:48:43;12.80;99.90
35531;DHT22;21637;53.352;-6.356;2023-04-09T09:51:12;12.70;99.90
35531;DHT22;21637;53.352;-6.356;2023-04-09T09:53:40;12.70;99.90
35531;DHT22;21637;53.352;-6.356;2023-04-09T09:56:14;12.70;99.90
35531;DHT22;21637;53.352;-6.356;2023-04-09T09:58:55;12.70;99.90
35531;DHT22;21637;53.352;-6.356;2023-04-09T10:01:26;12.60;99.90
35531;DHT22;21637;53.352;-6.356;2023-04-09T10:03:52;12.60;99.90
35531;DHT22;21637;53.352;-6.356;2023-04-09T10:06:22;12.60;99.90
35531;DHT22;21637;53.352;-6.356;2023-04-09T10:08:48;12.50;99.90
35531;DHT22;21637;53.352;-6.356;2023-04-09T10:11:17;12.50;99.90
35531;DHT22;21637;53.352;-6.356;2023-04-09T10:13:54;12.50;99.90
35531;DHT22;21637;53.352;-6.356;2023-04-09T10:16:21;12.50;99.90
35531;DHT22;21637;53.352;-6.356;2023-04-09T10:18:47;12.50;99.90
35531;DHT22;21637;53.352;-6.356;2023-04-09T10:23:58;12.50;99.90
35531;DHT22;21637;53.352;-6.356;2023-04-09T10:26:25;12.50;99.90
35531;DHT22;21637;53.352;-6.356;2023-04-09T10:29:14;12.50;99.90
35531;DHT22;21637;53.352;-6.356;2023-04-09T10:31:53;12.50;99.90
35531;DHT22;21637;53.352;-6.356;2023-04-09T10:34:27;12.50;99.90
35531;DHT22;21637;53.352;-6.356;2023-04-09T10:36:57;12.50;99.90
35531;DHT22;21637;53.352;-6.356;2023-04-09T10:39:27;12.50;99.90
35531;DHT22;21637;53.352;-6.356;2023-04-09T10:41:55;12.50;99.90
35531;DHT22;21637;53.352;-6.356;2023-04-09T10:44:24;12.60;99.90
35531;DHT22;21637;53.352;-6.356;2023-04-09T10:46:55;12.60;99.90
35531;DHT22;21637;53.352;-6.356;2023-04-09T10:49:21;12.70;99.90
35531;DHT22;21637;53.352;-6.356;2023-04-09T10:52:08;12.70;99.90
35531;DHT22;21637;53.352;-6.356;2023-04-09T10:54:43;12.70;99.90
35531;DHT22;21637;53.352;-6.356;2023-04-09T10:57:11;12.70;99.90
35531;DHT22;21637;53.352;-6.356;2023-04-09T10:59:54;12.70;99.90
35531;DHT22;21637;53.352;-6.356;2023-04-09T11:08:07;12.70;99.90
35531;DHT22;21637;53.352;-6.356;2023-04-09T11:10:34;12.70;99.90
35531;DHT22;21637;53.352;-6.356;2023-04-09T11:13:01;12.70;99.90
35531;DHT22;21637;53.352;-6.356;2023-04-09T11:15:27;12.80;99.90
35531;DHT22;21637;53.352;-6.356;2023-04-09T11:17:53;12.80;99.90
35531;DHT22;21637;53.352;-6.356;2023-04-09T11:20:21;12.90;99.90
35531;DHT22;21637;53.352;-6.356;2023-04-09T11:22:49;12.90;99.90
35531;DHT22;21637;53.352;-6.356;2023-04-09T11:25:26;13.00;99.90
35531;DHT22;21637;53.352;-6.356;2023-04-09T11:27:52;13.10;99.90
35531;DHT22;21637;53.352;-6.356;2023-04-09T11:30:18;13.20;99.90
35531;DHT22;21637;53.352;-6.356;2023-04-09T11:32:44;13.20;99.90
35531;DHT22;21637;53.352;-6.356;2023-04-09T11:35:17;13.10;99.90
35531;DHT22;21637;53.352;-6.356;2023-04-09T11:37:44;13.10;99.90
35531;DHT22;21637;53.352;-6.356;2023-04-09T11:42:41;13.10;99.90
35531;DHT22;21637;53.352;-6.356;2023-04-09T11:45:08;13.10;99.90
35531;DHT22;21637;53.352;-6.356;2023-04-09T11:47:35;13.10;99.90
35531;DHT22;21637;53.352;-6.356;2023-04-09T11:50:01;13.10;99.90
35531;DHT22;21637;53.352;-6.356;2023-04-09T11:52:27;13.00;99.90
35531;DHT22;21637;53.352;-6.356;2023-04-09T11:54:59;13.00;99.90
35531;DHT22;21637;53.352;-6.356;2023-04-09T11:57:41;12.90;99.90
35531;DHT22;21637;53.352;-6.356;2023-04-09T12:00:10;12.80;99.90
35531;DHT22;21637;53.352;-6.356;2023-04-09T12:02:41;12.80;99.90
35531;DHT22;21637;53.352;-6.356;2023-04-09T12:05:09;12.90;99.90
35531;DHT22;21637;53.352;-6.356;2023-04-09T12:07:36;12.80;99.90
35531;DHT22;21637;53.352;-6.356;2023-04-09T12:10:09;12.80;99.90
35531;DHT22;21637;53.352;-6.356;2023-04-09T12:12:47;12.80;99.90
35531;DHT22;21637;53.352;-6.356;2023-04-09T12:15:20;12.90;99.90
35531;DHT22;21637;53.352;-6.356;2023-04-09T12:17:54;12.80;99.90
35531;DHT22;21637;53.352;-6.356;2023-04-09T12:20:34;12.80;99.90
35531;DHT22;21637;53.352;-6.356;2023-04-09T12:23:01;12.80;99.90
35531;DHT22;21637;53.352;-6.356;2023-04-09T12:25:29;12.90;99.90
35531;DHT22;21637;53.352;-6.356;2023-04-09T12:27:55;12.90;99.90
35531;DHT22;21637;53.352;-6.356;2023-04-09T12:30:22;12.90;99.90
35531;DHT22;21637;53.352;-6.356;2023-04-09T12:32:48;12.90;99.90
35531;DHT22;21637;53.352;-6.356;2023-04-09T12:35:14;12.90;99.90
35531;DHT22;21637;53.352;-6.356;2023-04-09T12:37:41;13.00;99.90
35531;DHT22;21637;53.352;-6.356;2023-04-09T12:40:07;12.90;99.90
35531;DHT22;21637;53.352;-6.356;2023-04-09T12:42:33;12.90;99.90
35531;DHT22;21637;53.352;-6.356;2023-04-09T12:44:58;12.90;99.90
35531;DHT22;21637;53.352;-6.356;2023-04-09T12:47:24;12.90;99.90
35531;DHT22;21637;53.352;-6.356;2023-04-09T12:49:50;12.90;99.90
35531;DHT22;21637;53.352;-6.356;2023-04-09T12:52:16;12.90;99.90
35531;DHT22;21637;53.352;-6.356;2023-04-09T12:54:43;12.90;99.90
35531;DHT22;21637;53.352;-6.356;2023-04-09T12:57:09;12.90;99.90
35531;DHT22;21637;53.352;-6.356;2023-04-09T12:59:35;13.00;99.90
35531;DHT22;21637;53.352;-6.356;2023-04-09T13:02:02;13.00;99.90
35531;DHT22;21637;53.352;-6.356;2023-04-09T13:04:28;13.00;99.90
35531;DHT22;21637;53.352;-6.356;2023-04-09T13:06:53;13.00;99.90
35531;DHT22;21637;53.352;-6.356;2023-04-09T13:09:19;13.00;99.90
35531;DHT22;21637;53.352;-6.356;2023-04-09T13:11:45;13.00;99.90
35531;DHT22;21637;53.352;-6.356;2023-04-09T13:14:11;13.00;99.90
35531;DHT22;21637;53.352;-6.356;2023-04-09T13:16:39;13.10;99.90
35531;DHT22;21637;53.352;-6.356;2023-04-09T13:19:08;13.10;99.90
35531;DHT22;21637;53.352;-6.356;2023-04-09T13:21:34;13.10;99.90
35531;DHT22;21637;53.352;-6.356;2023-04-09T13:24:01;13.20;99.90
35531;DHT22;21637;53.352;-6.356;2023-04-09T13:26:27;13.10;99.90
35531;DHT22;21637;53.352;-6.356;2023-04-09T13:28:53;13.10;99.90
35531;DHT22;21637;53.352;-6.356;2023-04-09T13:31:18;13.10;99.90
35531;DHT22;21637;53.352;-6.356;2023-04-09T13:33:44;13.10;99.90
35531;DHT22;21637;53.352;-6.356;2023-04-09T13:36:10;13.10;99.90
35531;DHT22;21637;53.352;-6.356;2023-04-09T13:38:36;13.10;99.90
35531;DHT22;21637;53.352;-6.356;2023-04-09T13:41:02;13.10;99.90
35531;DHT22;21637;53.352;-6.356;2023-04-09T13:43:28;13.10;99.90
35531;DHT22;21637;53.352;-6.356;2023-04-09T13:45:54;13.10;99.90
35531;DHT22;21637;53.352;-6.356;2023-04-09T13:48:22;13.10;99.90
35531;DHT22;21637;53.352;-6.356;2023-04-09T13:50:48;13.10;99.90
35531;DHT22;21637;53.352;-6.356;2023-04-09T13:53:14;13.10;99.90
35531;DHT22;21637;53.352;-6.356;2023-04-09T13:55:41;13.10;99.90
35531;DHT22;21637;53.352;-6.356;2023-04-09T13:58:07;13.10;99.90
35531;DHT22;21637;53.352;-6.356;2023-04-09T14:00:34;13.10;99.90
35531;DHT22;21637;53.352;-6.356;2023-04-09T14:03:01;13.10;99.90
35531;DHT22;21637;53.352;-6.356;2023-04-09T14:05:28;13.10;99.90
35531;DHT22;21637;53.352;-6.356;2023-04-09T14:07:54;13.10;99.90
35531;DHT22;21637;53.352;-6.356;2023-04-09T14:10:20;13.10;99.90
35531;DHT22;21637;53.352;-6.356;2023-04-09T14:12:45;13.10;99.90
35531;DHT22;21637;53.352;-6.356;2023-04-09T14:15:11;13.20;99.90
35531;DHT22;21637;53.352;-6.356;2023-04-09T14:17:37;13.20;99.90
35531;DHT22;21637;53.352;-6.356;2023-04-09T14:20:02;13.20;99.90
35531;DHT22;21637;53.352;-6.356;2023-04-09T14:22:28;13.30;99.90
35531;DHT22;21637;53.352;-6.356;2023-04-09T14:24:54;13.30;99.90
35531;DHT22;21637;53.352;-6.356;2023-04-09T14:27:20;13.40;99.90
35531;DHT22;21637;53.352;-6.356;2023-04-09T14:29:46;13.40;99.90
35531;DHT22;21637;53.352;-6.356;2023-04-09T14:32:12;13.50;99.90
35531;DHT22;21637;53.352;-6.356;2023-04-09T14:34:38;13.60;99.90
35531;DHT22;21637;53.352;-6.356;2023-04-09T14:37:03;13.60;99.90
35531;DHT22;21637;53.352;-6.356;2023-04-09T14:39:29;13.70;99.90
35531;DHT22;21637;53.352;-6.356;2023-04-09T14:41:55;13.80;99.90
35531;DHT22;21637;53.352;-6.356;2023-04-09T14:44:22;13.90;99.90
35531;DHT22;21637;53.352;-6.356;2023-04-09T14:46:50;14.00;99.90
35531;DHT22;21637;53.352;-6.356;2023-04-09T14:49:17;14.00;99.90
35531;DHT22;21637;53.352;-6.356;2023-04-09T14:51:42;14.00;99.90
35531;DHT22;21637;53.352;-6.356;2023-04-09T14:54:08;14.00;99.90
35531;DHT22;21637;53.352;-6.356;2023-04-09T14:56:34;14.00;99.90
35531;DHT22;21637;53.352;-6.356;2023-04-09T14:59:00;13.90;99.90
35531;DHT22;21637;53.352;-6.356;2023-04-09T15:01:26;13.80;99.90
35531;DHT22;21637;53.352;-6.356;2023-04-09T15:03:52;13.70;99.90
35531;DHT22;21637;53.352;-6.356;2023-04-09T15:06:18;13.60;99.90
35531;DHT22;21637;53.352;-6.356;2023-04-09T15:08:44;13.60;99.90
35531;DHT22;21637;53.352;-6.356;2023-04-09T15:11:17;13.60;99.90
35531;DHT22;21637;53.352;-6.356;2023-04-09T15:13:43;13.50;99.90
35531;DHT22;21637;53.352;-6.356;2023-04-09T15:16:09;13.50;99.90
35531;DHT22;21637;53.352;-6.356;2023-04-09T15:18:35;13.50;99.90
35531;DHT22;21637;53.352;-6.356;2023-04-09T15:21:01;13.50;99.90
35531;DHT22;21637;53.352;-6.356;2023-04-09T15:23:27;13.50;99.90
35531;DHT22;21637;53.352;-6.356;2023-04-09T15:25:53;13.50;99.90
35531;DHT22;21637;53.352;-6.356;2023-04-09T15:28:19;13.60;99.90
35531;DHT22;21637;53.352;-6.356;2023-04-09T15:30:44;13.60;99.90
35531;DHT22;21637;53.352;-6.356;2023-04-09T15:33:12;13.60;99.90
35531;DHT22;21637;53.352;-6.356;2023-04-09T15:35:37;13.50;99.90
35531;DHT22;21637;53.352;-6.356;2023-04-09T15:38:03;13.60;99.90
35531;DHT22;21637;53.352;-6.356;2023-04-09T15:40:29;13.60;99.90
35531;DHT22;21637;53.352;-6.356;2023-04-09T15:42:56;13.60;99.90